Time;durP1;ratioP1;P1;durP2;ratioP2;P2;SDS_P1;SDS_P2;PMS_P1;PMS_P2;Temp;Humidity;BMP_temperature;BMP_pressure;BME280_temperature;BME280_humidity;BME280_pressure;Samples;Min_cycle;Max_cycle;Signal;HPM_P1;HPM_P2
2022/02/16 00:01:11;;;;;;;13.90;2.25;;;25.40;99.90;;;;;;5023433;28;20596;-65
2022/02/16 00:03:38;;;;;;;15.40;2.58;;;25.00;99.90;;;;;;5035167;28;20489;-65
2022/02/16 00:06:05;;;;;;;12.88;2.08;;;25.00;99.90;;;;;;5023675;28;20440;-64
2022/02/16 00:08:32;;;;;;;12.20;2.10;;;25.30;99.90;;;;;;5016833;28;20109;-64
2022/02/16 00:11:00;;;;;;;11.55;1.52;;;25.70;99.90;;;;;;5034384;28;20033;-64
2022/02/16 00:13:27;;;;;;;9.43;2.00;;;26.10;99.90;;;;;;5042656;28;20049;-64
2022/02/16 00:15:54;;;;;;;9.48;1.45;;;26.20;99.90;;;;;;5033537;28;20038;-64
2022/02/16 00:18:21;;;;;;;8.60;1.85;;;26.40;99.90;;;;;;5027273;28;20045;-65
2022/02/16 00:21:04;;;;;;;15.40;2.03;;;26.40;99.90;;;;;;5030553;28;20116;-66
2022/02/16 00:23:31;;;;;;;12.20;1.52;;;26.30;99.90;;;;;;5014518;28;20037;-65
2022/02/16 00:26:02;;;;;;;11.32;1.52;;;26.40;99.90;;;;;;5036720;28;20079;-65
2022/02/16 00:28:32;;;;;;;9.02;1.80;;;26.40;99.90;;;;;;5033747;28;20029;-64
2022/02/16 00:31:00;;;;;;;12.30;1.80;;;26.50;99.90;;;;;;5031589;28;20036;-65
2022/02/16 00:33:27;;;;;;;7.70;1.40;;;26.50;99.90;;;;;;5028322;28;20029;-64
2022/02/16 00:35:55;;;;;;;7.55;1.25;;;26.50;99.90;;;;;;5025172;28;20029;-65
2022/02/16 00:38:22;;;;;;;8.25;1.73;;;26.40;99.90;;;;;;5039444;28;20025;-64
2022/02/16 00:40:50;;;;;;;11.50;1.52;;;26.60;99.90;;;;;;5027966;28;20030;-64
2022/02/16 00:43:17;;;;;;;12.65;1.30;;;26.70;99.90;;;;;;5029693;28;20108;-63
2022/02/16 00:45:44;;;;;;;9.52;1.67;;;26.70;99.90;;;;;;5018916;28;20037;-63
2022/02/16 00:48:11;;;;;;;10.00;1.65;;;26.80;99.90;;;;;;5021854;28;20051;-64
2022/02/16 00:50:39;;;;;;;10.68;2.17;;;27.00;99.90;;;;;;5034455;28;20037;-64
2022/02/16 00:53:06;;;;;;;9.52;1.73;;;27.20;99.90;;;;;;5039443;28;20477;-64
2022/02/16 00:55:34;;;;;;;11.30;1.38;;;27.10;99.90;;;;;;5054706;28;20041;-64
2022/02/16 00:58:05;;;;;;;9.30;1.75;;;27.20;99.90;;;;;;5036286;28;20040;-64
2022/02/16 01:00:33;;;;;;;7.03;1.33;;;27.10;99.90;;;;;;5019417;28;20064;-64
2022/02/16 01:03:01;;;;;;;10.73;1.98;;;26.70;99.90;;;;;;5024622;28;20025;-65
2022/02/16 01:05:28;;;;;;;8.70;1.83;;;26.90;99.90;;;;;;5054945;28;20488;-64
2022/02/16 01:07:56;;;;;;;8.73;1.98;;;26.80;99.90;;;;;;5035574;28;20029;-63
2022/02/16 01:10:23;;;;;;;11.40;1.60;;;26.80;99.90;;;;;;5021763;28;20431;-64
2022/02/16 01:12:51;;;;;;;14.45;1.90;;;26.80;99.90;;;;;;5028742;28;20029;-64
2022/02/16 01:15:18;;;;;;;15.40;1.92;;;27.10;99.90;;;;;;5030431;28;20030;-64
2022/02/16 01:17:46;;;;;;;12.15;1.60;;;27.30;99.90;;;;;;5027858;28;20033;-64
2022/02/16 01:20:13;;;;;;;8.60;1.48;;;27.30;99.90;;;;;;5005919;28;20096;-64
2022/02/16 01:22:41;;;;;;;8.40;1.33;;;27.50;99.90;;;;;;5017510;28;20444;-64
2022/02/16 01:25:08;;;;;;;12.18;1.83;;;27.50;99.90;;;;;;5034578;28;20078;-65
2022/02/16 01:27:35;;;;;;;11.18;1.58;;;27.50;99.90;;;;;;5034779;28;20436;-64
2022/02/16 01:30:03;;;;;;;13.70;1.77;;;27.50;99.90;;;;;;5033145;28;20037;-64
2022/02/16 01:32:31;;;;;;;8.93;1.65;;;27.50;99.90;;;;;;5033528;28;20448;-64
2022/02/16 01:34:58;;;;;;;10.70;1.33;;;27.30;99.90;;;;;;5002357;28;20397;-64
2022/02/16 01:37:25;;;;;;;7.90;1.67;;;27.10;99.90;;;;;;5027060;28;20398;-64
2022/02/16 01:39:52;;;;;;;8.98;1.63;;;27.30;99.90;;;;;;5015858;28;20382;-63
2022/02/16 01:42:21;;;;;;;11.75;1.73;;;27.40;99.90;;;;;;5014415;28;20037;-63
2022/02/16 01:44:49;;;;;;;12.73;2.53;;;27.50;99.90;;;;;;5053323;28;20033;-63
2022/02/16 01:47:17;;;;;;;7.97;1.63;;;27.70;99.90;;;;;;5011515;28;20033;-64
2022/02/16 01:49:44;;;;;;;9.45;1.88;;;27.60;99.90;;;;;;5016521;28;20079;-64
2022/02/16 01:52:12;;;;;;;14.23;2.33;;;27.50;99.90;;;;;;5033941;28;20025;-63
2022/02/16 01:54:39;;;;;;;11.68;1.48;;;27.60;99.90;;;;;;5033991;28;20048;-64
2022/02/16 01:57:08;;;;;;;9.57;1.58;;;27.80;99.90;;;;;;5022497;28;20037;-64
2022/02/16 01:59:38;;;;;;;9.98;1.52;;;27.60;99.90;;;;;;5051044;28;20078;-64
2022/02/16 02:02:07;;;;;;;10.35;1.63;;;27.60;99.90;;;;;;5053668;28;20031;-64
2022/02/16 02:04:34;;;;;;;10.45;1.98;;;27.80;99.90;;;;;;5034703;28;20025;-63
2022/02/16 02:07:01;;;;;;;9.95;1.45;;;27.50;99.90;;;;;;5035108;28;20037;-64
2022/02/16 02:09:29;;;;;;;8.77;1.27;;;27.40;99.90;;;;;;5019807;28;20038;-63
2022/02/16 02:11:56;;;;;;;11.60;2.28;;;27.50;99.90;;;;;;5017134;28;20075;-65
2022/02/16 02:14:24;;;;;;;9.65;1.80;;;27.50;99.90;;;;;;5018278;28;20038;-64
2022/02/16 02:16:52;;;;;;;11.13;1.80;;;27.30;99.90;;;;;;5013820;28;20037;-64
2022/02/16 02:19:19;;;;;;;10.65;1.45;;;27.50;99.90;;;;;;5045946;28;20032;-64
2022/02/16 02:21:48;;;;;;;11.20;1.92;;;27.10;99.90;;;;;;5053378;28;20103;-64
2022/02/16 02:24:16;;;;;;;8.98;1.40;;;27.10;99.90;;;;;;5020465;28;20029;-64
2022/02/16 02:26:43;;;;;;;12.07;1.80;;;27.20;99.90;;;;;;5033014;28;20029;-64
2022/02/16 02:29:10;;;;;;;9.02;1.65;;;27.50;99.90;;;;;;5013706;28;20022;-63
2022/02/16 02:31:39;;;;;;;10.75;1.67;;;27.60;99.90;;;;;;5015376;28;20022;-64
2022/02/16 02:34:06;;;;;;;8.98;1.77;;;27.60;99.90;;;;;;5033217;28;20028;-64
2022/02/16 02:36:34;;;;;;;9.05;1.55;;;27.60;99.90;;;;;;5033145;28;20029;-64
2022/02/16 02:39:02;;;;;;;9.23;1.50;;;27.60;99.90;;;;;;5032536;28;20047;-64
2022/02/16 02:41:29;;;;;;;13.00;1.30;;;27.70;99.90;;;;;;5033173;28;20451;-63
2022/02/16 02:43:58;;;;;;;11.32;1.45;;;27.80;99.90;;;;;;5032303;28;20064;-64
2022/02/16 02:46:26;;;;;;;7.47;1.60;;;27.80;99.90;;;;;;5028987;28;20388;-64
2022/02/16 02:48:53;;;;;;;10.55;1.42;;;27.70;99.90;;;;;;5026197;28;20081;-64
2022/02/16 02:51:21;;;;;;;9.13;1.45;;;27.30;99.90;;;;;;5033220;28;20018;-64
2022/02/16 02:53:48;;;;;;;8.02;1.77;;;27.30;99.90;;;;;;5020987;28;20048;-64
2022/02/16 02:56:16;;;;;;;8.65;1.73;;;27.50;99.90;;;;;;5013291;28;20034;-64
2022/02/16 02:58:43;;;;;;;12.65;1.67;;;27.30;99.90;;;;;;5028733;28;20037;-64
2022/02/16 03:01:11;;;;;;;8.70;1.73;;;26.80;99.90;;;;;;5024172;28;20208;-64
2022/02/16 03:03:38;;;;;;;11.55;2.13;;;27.30;99.90;;;;;;5023712;28;20037;-64
2022/02/16 03:06:12;;;;;;;9.98;1.20;;;27.60;99.90;;;;;;5032204;28;20105;-64
2022/02/16 03:08:40;;;;;;;15.15;2.45;;;27.50;99.90;;;;;;5033356;28;20041;-64
2022/02/16 03:11:07;;;;;;;8.43;1.92;;;27.40;99.90;;;;;;5032752;28;20025;-64
2022/02/16 03:13:35;;;;;;;9.27;1.73;;;27.10;99.90;;;;;;5014837;28;20096;-64
2022/02/16 03:16:02;;;;;;;13.40;1.50;;;27.10;99.90;;;;;;5030906;28;20066;-64
2022/02/16 03:18:29;;;;;;;8.88;1.60;;;26.90;99.90;;;;;;5029290;28;20037;-64
2022/02/16 03:20:56;;;;;;;11.73;1.90;;;27.10;99.90;;;;;;5012874;28;20033;-64
2022/02/16 03:23:24;;;;;;;5.32;1.33;;;27.30;99.90;;;;;;5029751;28;20116;-64
2022/02/16 03:25:51;;;;;;;11.48;1.52;;;27.50;99.90;;;;;;5031750;28;20071;-64
2022/02/16 03:28:18;;;;;;;10.48;2.00;;;27.40;99.90;;;;;;5030876;28;20026;-64
2022/02/16 03:30:46;;;;;;;9.02;1.77;;;27.40;99.90;;;;;;5023247;28;20041;-64
2022/02/16 03:33:13;;;;;;;8.52;1.30;;;27.20;99.90;;;;;;5021575;28;20030;-64
2022/02/16 03:35:41;;;;;;;6.25;1.10;;;27.20;99.90;;;;;;5031756;28;20026;-64
2022/02/16 03:38:08;;;;;;;6.53;1.10;;;27.10;99.90;;;;;;5036534;28;20034;-64
2022/02/16 03:40:35;;;;;;;9.13;1.77;;;27.00;99.90;;;;;;5038516;28;20049;-64
2022/02/16 03:43:02;;;;;;;7.40;1.40;;;26.80;99.90;;;;;;5032688;28;20054;-64
2022/02/16 03:45:30;;;;;;;6.20;1.15;;;26.80;99.90;;;;;;5018444;28;20485;-64
2022/02/16 03:47:57;;;;;;;9.27;1.52;;;26.70;99.90;;;;;;5021662;28;20075;-64
2022/02/16 03:50:25;;;;;;;6.05;1.00;;;26.70;99.90;;;;;;5043271;28;20060;-64
2022/02/16 03:52:52;;;;;;;7.97;1.42;;;26.60;99.90;;;;;;5034719;28;20025;-64
2022/02/16 03:55:20;;;;;;;6.97;1.42;;;26.60;99.90;;;;;;5041957;28;20053;-65
2022/02/16 03:57:48;;;;;;;6.72;1.23;;;26.60;99.90;;;;;;5022239;28;20043;-64
2022/02/16 04:00:19;;;;;;;8.88;1.40;;;26.50;99.90;;;;;;5026103;28;20034;-64
2022/02/16 04:02:46;;;;;;;5.82;1.35;;;26.40;99.90;;;;;;5027335;28;20440;-64
2022/02/16 04:05:14;;;;;;;14.52;2.17;;;26.20;99.90;;;;;;5029940;28;20451;-63
2022/02/16 04:07:42;;;;;;;10.82;1.10;;;26.30;99.90;;;;;;5020449;28;20033;-65
2022/02/16 04:10:12;;;;;;;10.45;1.80;;;26.30;99.90;;;;;;5023507;28;20030;-65
2022/02/16 04:12:39;;;;;;;6.85;1.23;;;26.40;99.90;;;;;;5029214;28;20025;-64
2022/02/16 04:15:08;;;;;;;14.38;1.77;;;26.40;99.90;;;;;;5026241;28;20030;-65
2022/02/16 04:17:36;;;;;;;8.90;1.45;;;26.40;99.90;;;;;;5029651;28;20095;-65
2022/02/16 04:20:04;;;;;;;8.43;1.23;;;26.20;99.90;;;;;;5034003;28;20026;-65
2022/02/16 04:22:31;;;;;;;8.00;1.48;;;26.10;99.90;;;;;;5028587;28;20029;-64
2022/02/16 04:24:58;;;;;;;11.40;1.90;;;26.10;99.90;;;;;;5033057;28;20073;-64
2022/02/16 04:27:26;;;;;;;8.68;1.80;;;26.10;99.90;;;;;;5033256;28;20036;-64
2022/02/16 04:29:53;;;;;;;10.35;1.45;;;26.20;99.90;;;;;;5037184;28;20096;-63
2022/02/16 04:32:20;;;;;;;9.50;1.73;;;26.20;99.90;;;;;;5031611;28;20022;-64
2022/02/16 04:34:48;;;;;;;8.35;1.33;;;26.40;99.90;;;;;;5034426;28;20465;-64
2022/02/16 04:37:15;;;;;;;9.00;1.90;;;26.30;99.90;;;;;;5030848;28;20018;-64
2022/02/16 04:39:42;;;;;;;10.32;1.52;;;26.40;99.90;;;;;;5033445;28;20034;-64
2022/02/16 04:42:09;;;;;;;7.95;1.17;;;26.50;99.90;;;;;;5033063;28;20029;-64
2022/02/16 04:44:37;;;;;;;9.85;1.50;;;26.60;99.90;;;;;;5034422;28;20048;-65
2022/02/16 04:47:04;;;;;;;9.77;1.35;;;26.60;99.90;;;;;;5030457;28;20034;-64
2022/02/16 04:49:32;;;;;;;8.68;1.92;;;26.60;99.90;;;;;;5030204;28;20037;-64
2022/02/16 04:51:59;;;;;;;9.88;1.60;;;26.70;99.90;;;;;;5013803;28;20492;-64
2022/02/16 04:54:27;;;;;;;10.15;2.15;;;26.60;99.90;;;;;;5031803;28;20171;-64
2022/02/16 04:56:54;;;;;;;8.70;1.30;;;26.60;99.90;;;;;;5027210;28;20454;-64
2022/02/16 04:59:21;;;;;;;9.80;1.58;;;26.40;99.90;;;;;;5033669;28;20112;-64
2022/02/16 05:01:49;;;;;;;13.20;2.33;;;26.30;99.90;;;;;;5031975;28;20025;-66
2022/02/16 05:04:16;;;;;;;8.57;1.67;;;26.40;99.90;;;;;;5013574;28;20024;-65
2022/02/16 05:06:45;;;;;;;10.38;2.10;;;26.40;99.90;;;;;;5039797;28;20018;-64
2022/02/16 05:09:12;;;;;;;12.00;1.50;;;26.40;99.90;;;;;;5038805;28;20108;-64
2022/02/16 05:11:39;;;;;;;10.40;2.50;;;26.30;99.90;;;;;;5018164;28;20076;-65
2022/02/16 05:14:07;;;;;;;12.52;2.10;;;26.50;99.90;;;;;;5037686;28;20060;-65
2022/02/16 05:16:34;;;;;;;6.45;1.20;;;26.40;99.90;;;;;;5033026;28;20026;-65
2022/02/16 05:19:01;;;;;;;11.63;1.65;;;26.40;99.90;;;;;;5032282;28;20067;-66
2022/02/16 05:21:29;;;;;;;9.15;1.67;;;26.40;99.90;;;;;;5032113;28;20036;-65
2022/02/16 05:23:56;;;;;;;10.93;1.20;;;26.40;99.90;;;;;;5029587;28;20022;-65
2022/02/16 05:26:23;;;;;;;6.88;1.25;;;26.40;99.90;;;;;;5017317;28;20029;-65
2022/02/16 05:28:51;;;;;;;6.18;0.90;;;26.20;99.90;;;;;;5034363;28;20021;-63
2022/02/16 05:31:18;;;;;;;10.38;1.77;;;26.10;99.90;;;;;;5030982;28;20378;-65
2022/02/16 05:33:45;;;;;;;6.00;1.30;;;26.10;99.90;;;;;;5039606;28;20509;-65
2022/02/16 05:36:13;;;;;;;10.23;1.42;;;26.10;99.90;;;;;;5028644;28;20116;-65
2022/02/16 05:38:41;;;;;;;9.93;1.55;;;26.20;99.90;;;;;;5034295;28;20056;-65
2022/02/16 05:41:08;;;;;;;8.25;1.63;;;26.20;99.90;;;;;;5033257;28;20048;-65
2022/02/16 05:43:35;;;;;;;8.00;1.85;;;26.20;99.90;;;;;;5031757;28;20041;-65
2022/02/16 05:46:03;;;;;;;11.90;1.63;;;26.20;99.90;;;;;;5032556;28;20409;-65
2022/02/16 05:48:30;;;;;;;7.95;1.35;;;26.10;99.90;;;;;;5026589;28;20025;-65
2022/02/16 05:50:57;;;;;;;8.77;1.35;;;26.10;99.90;;;;;;5033220;28;20082;-65
2022/02/16 05:53:25;;;;;;;7.95;1.20;;;26.10;99.90;;;;;;5031889;28;20104;-65
2022/02/16 05:55:52;;;;;;;13.60;1.83;;;26.10;99.90;;;;;;5032168;28;20025;-65
2022/02/16 05:58:20;;;;;;;9.25;1.80;;;26.00;99.90;;;;;;5039357;28;20029;-65
2022/02/16 06:00:47;;;;;;;8.55;1.77;;;25.90;99.90;;;;;;5036187;28;20051;-65
2022/02/16 06:03:14;;;;;;;9.52;0.85;;;26.00;99.90;;;;;;5031769;28;20384;-65
2022/02/16 06:05:41;;;;;;;9.80;1.83;;;26.00;99.90;;;;;;5028319;28;20032;-64
2022/02/16 06:08:09;;;;;;;8.07;1.77;;;25.80;99.90;;;;;;5037040;28;20021;-65
2022/02/16 06:10:36;;;;;;;10.05;1.20;;;25.90;99.90;;;;;;5053510;28;20025;-64
2022/02/16 06:13:03;;;;;;;8.57;1.40;;;25.80;99.90;;;;;;5030492;28;20021;-65
2022/02/16 06:15:31;;;;;;;7.18;1.23;;;25.70;99.90;;;;;;5033415;28;20124;-64
2022/02/16 06:17:58;;;;;;;8.05;1.30;;;25.80;99.90;;;;;;5036997;28;20032;-64
2022/02/16 06:20:26;;;;;;;6.78;1.58;;;25.90;99.90;;;;;;5053664;28;20024;-64
2022/02/16 06:22:56;;;;;;;9.75;1.83;;;26.00;99.90;;;;;;5047530;28;20582;-64
2022/02/16 06:25:24;;;;;;;10.98;1.83;;;25.90;99.90;;;;;;5047124;28;20155;-64
2022/02/16 06:27:52;;;;;;;10.40;1.60;;;25.90;99.90;;;;;;5018825;28;20534;-64
2022/02/16 06:30:19;;;;;;;5.53;0.82;;;25.70;99.90;;;;;;5031033;28;20040;-64
2022/02/16 06:32:46;;;;;;;10.10;1.15;;;25.60;99.90;;;;;;5026191;28;20047;-64
2022/02/16 06:35:15;;;;;;;5.97;1.48;;;25.60;99.90;;;;;;5013461;28;20022;-64
2022/02/16 06:37:45;;;;;;;10.05;1.40;;;25.60;99.90;;;;;;5018647;28;20484;-64
2022/02/16 06:40:13;;;;;;;5.75;1.05;;;25.40;99.90;;;;;;5042397;28;20485;-64
2022/02/16 06:42:41;;;;;;;7.15;1.00;;;25.40;99.90;;;;;;5033695;28;20540;-65
2022/02/16 06:45:10;;;;;;;10.10;1.60;;;25.50;99.90;;;;;;5035160;28;20040;-64
2022/02/16 06:47:37;;;;;;;6.20;0.90;;;25.20;99.90;;;;;;5051257;28;20033;-64
2022/02/16 06:50:06;;;;;;;8.80;0.90;;;25.30;99.90;;;;;;5033078;28;20083;-64
2022/02/16 06:52:33;;;;;;;4.93;0.93;;;25.30;99.90;;;;;;5033317;28;20029;-64
2022/02/16 06:55:00;;;;;;;10.27;1.67;;;25.30;99.90;;;;;;5032875;28;20052;-64
2022/02/16 06:57:28;;;;;;;7.55;1.30;;;25.30;99.90;;;;;;5031826;28;20080;-64
2022/02/16 06:59:55;;;;;;;6.03;1.02;;;25.40;99.90;;;;;;5032891;28;20021;-64
2022/02/16 07:02:22;;;;;;;7.10;1.13;;;25.20;99.90;;;;;;5032524;28;20026;-64
2022/02/16 07:04:50;;;;;;;8.88;1.48;;;25.10;99.90;;;;;;5014084;28;20056;-64
2022/02/16 07:07:17;;;;;;;7.57;0.90;;;25.00;99.90;;;;;;5013683;28;20113;-64
2022/02/16 07:09:44;;;;;;;8.48;1.20;;;25.00;99.90;;;;;;5013933;28;20065;-64
2022/02/16 07:12:11;;;;;;;9.02;1.38;;;25.00;99.90;;;;;;5033155;28;20477;-64
2022/02/16 07:14:39;;;;;;;6.43;0.80;;;24.90;99.90;;;;;;5015898;28;20030;-64
2022/02/16 07:17:06;;;;;;;8.30;1.00;;;24.90;99.90;;;;;;5012975;28;20061;-63
2022/02/16 07:19:33;;;;;;;7.00;1.25;;;24.80;99.90;;;;;;5041428;28;20025;-64
2022/02/16 07:22:01;;;;;;;8.27;1.13;;;24.70;99.90;;;;;;5013297;28;20022;-64
2022/02/16 07:24:28;;;;;;;9.77;1.08;;;24.70;99.90;;;;;;5046778;28;20021;-64
2022/02/16 07:26:59;;;;;;;9.43;1.42;;;24.60;99.90;;;;;;5035141;28;20030;-64
2022/02/16 07:29:28;;;;;;;8.57;1.02;;;24.70;99.90;;;;;;5029922;28;20018;-64
2022/02/16 07:31:56;;;;;;;11.02;2.30;;;24.70;99.90;;;;;;5032051;28;20038;-64
2022/02/16 07:34:29;;;;;;;8.15;1.33;;;24.70;99.90;;;;;;5027360;28;20027;-64
2022/02/16 07:37:00;;;;;;;10.00;0.77;;;24.60;99.90;;;;;;5012620;28;20034;-63
2022/02/16 07:39:28;;;;;;;9.38;1.27;;;24.60;99.90;;;;;;5031923;28;20033;-63
2022/02/16 07:41:56;;;;;;;10.20;2.00;;;24.60;99.90;;;;;;5032576;28;20030;-64
2022/02/16 07:44:23;;;;;;;9.18;1.05;;;24.50;99.90;;;;;;5032449;28;20045;-64
2022/02/16 07:46:50;;;;;;;7.35;1.50;;;24.50;99.90;;;;;;5016155;28;20059;-64
2022/02/16 07:49:17;;;;;;;10.68;1.40;;;24.40;99.90;;;;;;5032563;28;20022;-63
2022/02/16 07:51:45;;;;;;;14.85;1.42;;;24.30;99.90;;;;;;5031467;28;20021;-64
2022/02/16 07:54:12;;;;;;;9.35;1.35;;;24.20;99.90;;;;;;5043946;28;20045;-64
2022/02/16 07:56:39;;;;;;;5.00;1.10;;;24.10;99.90;;;;;;5035366;28;20370;-63
2022/02/16 07:59:06;;;;;;;11.60;1.45;;;24.10;99.90;;;;;;5035851;28;20021;-63
2022/02/16 08:01:34;;;;;;;11.50;1.73;;;24.10;99.90;;;;;;5036167;28;20025;-63
2022/02/16 08:04:16;;;;;;;7.10;1.33;;;24.10;99.90;;;;;;5035392;28;20555;-63
2022/02/16 08:06:48;;;;;;;10.32;1.80;;;24.00;99.90;;;;;;5036363;28;20424;-63
2022/02/16 08:09:16;;;;;;;14.07;2.65;;;24.00;99.90;;;;;;5036050;28;20025;-63
2022/02/16 08:11:45;;;;;;;7.45;1.38;;;24.00;99.90;;;;;;5018371;28;20083;-63
2022/02/16 08:14:13;;;;;;;11.10;2.17;;;23.90;99.90;;;;;;5036222;28;20370;-64
2022/02/16 08:16:41;;;;;;;11.93;1.70;;;23.90;99.90;;;;;;5021870;28;20498;-63
2022/02/16 08:19:11;;;;;;;7.22;1.30;;;23.80;99.90;;;;;;5045265;28;20025;-63
2022/02/16 08:21:40;;;;;;;8.30;1.63;;;23.80;99.90;;;;;;5047532;28;20104;-64
2022/02/16 08:24:08;;;;;;;10.02;1.70;;;23.70;99.90;;;;;;5031217;28;20041;-63
2022/02/16 08:26:36;;;;;;;10.70;1.85;;;23.80;99.90;;;;;;5031857;28;20025;-63
2022/02/16 08:29:04;;;;;;;10.05;1.60;;;23.70;99.90;;;;;;5024065;28;20400;-65
2022/02/16 08:31:31;;;;;;;9.80;1.88;;;23.70;99.90;;;;;;5018491;28;20025;-63
2022/02/16 08:33:59;;;;;;;10.57;2.08;;;23.60;99.90;;;;;;5028322;28;20029;-63
2022/02/16 08:36:26;;;;;;;7.45;1.67;;;23.70;99.90;;;;;;5035541;28;20458;-63
2022/02/16 08:38:54;;;;;;;16.95;2.22;;;23.50;99.90;;;;;;5035462;28;20057;-63
2022/02/16 08:41:21;;;;;;;10.40;1.95;;;23.50;99.90;;;;;;5036233;28;20026;-63
2022/02/16 08:43:48;;;;;;;9.43;1.75;;;23.50;99.90;;;;;;5046290;28;20431;-63
2022/02/16 08:46:16;;;;;;;9.48;1.40;;;23.50;99.90;;;;;;5055317;28;20056;-63
2022/02/16 08:48:43;;;;;;;10.25;1.45;;;23.40;99.90;;;;;;5053439;28;20435;-63
2022/02/16 08:51:11;;;;;;;8.75;1.40;;;23.40;99.90;;;;;;5055304;28;20031;-63
2022/02/16 08:53:39;;;;;;;13.52;1.67;;;23.30;99.90;;;;;;5047384;28;20828;-63
2022/02/16 08:56:08;;;;;;;10.60;1.33;;;23.30;99.90;;;;;;5055119;28;20033;-63
2022/02/16 08:58:35;;;;;;;7.55;1.45;;;23.30;99.90;;;;;;5035781;28;20536;-63
2022/02/16 09:01:03;;;;;;;12.55;1.40;;;23.30;99.90;;;;;;5015171;28;20120;-64
2022/02/16 09:03:31;;;;;;;12.50;1.88;;;23.30;99.90;;;;;;5032028;28;20040;-63
2022/02/16 09:05:59;;;;;;;10.48;1.27;;;23.20;99.90;;;;;;5054527;28;20123;-63
2022/02/16 09:08:26;;;;;;;8.18;1.23;;;23.20;99.90;;;;;;5045592;28;20108;-63
2022/02/16 09:10:53;;;;;;;9.52;1.90;;;23.20;99.90;;;;;;5019955;28;20034;-63
2022/02/16 09:13:21;;;;;;;10.80;1.20;;;23.20;99.90;;;;;;5023948;28;20025;-63
2022/02/16 09:15:48;;;;;;;10.63;1.38;;;23.20;99.90;;;;;;5034550;28;20100;-63
2022/02/16 09:18:17;;;;;;;6.25;1.33;;;23.20;99.90;;;;;;5033051;28;20037;-63
2022/02/16 09:20:47;;;;;;;12.45;1.90;;;23.20;99.90;;;;;;5034518;28;20022;-63
2022/02/16 09:23:18;;;;;;;10.15;1.88;;;23.10;99.90;;;;;;5033773;28;20036;-63
2022/02/16 09:25:45;;;;;;;12.43;2.13;;;23.10;99.90;;;;;;5040965;28;20025;-63
2022/02/16 09:28:13;;;;;;;9.32;1.88;;;23.10;99.90;;;;;;5034934;28;20037;-63
2022/02/16 09:30:40;;;;;;;15.07;2.03;;;23.10;99.90;;;;;;5028332;28;20041;-63
2022/02/16 09:33:08;;;;;;;8.95;1.90;;;23.10;99.90;;;;;;5033308;28;20121;-63
2022/02/16 09:35:35;;;;;;;11.68;1.77;;;23.10;99.90;;;;;;5016052;28;20076;-63
2022/02/16 09:38:02;;;;;;;10.50;1.83;;;23.10;99.90;;;;;;5033509;28;20045;-63
2022/02/16 09:40:30;;;;;;;14.73;2.53;;;23.10;99.90;;;;;;5035205;28;20045;-63
2022/02/16 09:43:02;;;;;;;11.50;1.90;;;23.10;99.90;;;;;;5037523;28;20051;-63
2022/02/16 09:45:31;;;;;;;11.90;2.10;;;23.00;99.90;;;;;;5042803;28;20030;-63
2022/02/16 09:47:59;;;;;;;15.48;2.53;;;23.00;99.90;;;;;;5033375;28;20033;-63
2022/02/16 09:50:26;;;;;;;12.20;2.00;;;23.00;99.90;;;;;;5034151;28;20036;-63
2022/02/16 09:52:54;;;;;;;11.45;1.45;;;23.00;99.90;;;;;;5034387;28;20071;-63
2022/02/16 09:55:21;;;;;;;14.35;2.30;;;23.00;99.90;;;;;;5033840;28;20508;-63
2022/02/16 09:57:48;;;;;;;17.13;2.45;;;23.00;99.90;;;;;;5033626;28;20025;-63
2022/02/16 10:00:16;;;;;;;10.63;1.85;;;23.00;99.90;;;;;;5013301;28;20034;-64
2022/02/16 10:02:45;;;;;;;8.93;1.85;;;23.00;99.90;;;;;;5032120;28;20045;-64
2022/02/16 10:05:15;;;;;;;15.60;2.03;;;23.00;99.90;;;;;;5025637;28;20022;-64
2022/02/16 10:07:45;;;;;;;8.23;1.80;;;22.90;99.90;;;;;;5029508;28;20134;-65
2022/02/16 10:10:18;;;;;;;11.98;1.52;;;22.80;99.90;;;;;;5031551;28;20049;-64
2022/02/16 10:12:48;;;;;;;10.50;1.33;;;22.90;99.90;;;;;;5040869;28;20032;-64
2022/02/16 10:15:18;;;;;;;12.65;1.85;;;22.80;99.90;;;;;;5008391;28;20033;-65
2022/02/16 10:17:45;;;;;;;10.10;1.75;;;22.80;99.90;;;;;;5024705;28;20034;-65
2022/02/16 10:20:17;;;;;;;10.48;1.63;;;22.80;99.90;;;;;;5031223;28;20030;-65
2022/02/16 10:22:49;;;;;;;8.63;1.98;;;22.80;99.90;;;;;;5033844;28;20374;-64
2022/02/16 10:25:28;;;;;;;9.85;1.80;;;22.80;99.90;;;;;;5029062;28;20637;-65
2022/02/16 10:28:13;;;;;;;10.73;1.55;;;22.80;99.90;;;;;;5026867;28;20188;-65
2022/02/16 10:30:59;;;;;;;9.07;1.15;;;22.80;99.90;;;;;;5029877;28;20053;-65
2022/02/16 10:33:41;;;;;;;11.70;1.83;;;22.70;99.90;;;;;;5028391;28;20028;-63
2022/02/16 10:36:13;;;;;;;10.27;1.48;;;22.70;99.90;;;;;;5027905;28;20587;-64
2022/02/16 10:39:03;;;;;;;13.57;1.80;;;22.70;99.90;;;;;;5032080;28;20080;-64
2022/02/16 10:41:53;;;;;;;10.25;1.52;;;22.70;99.90;;;;;;5031053;28;20033;-64
2022/02/16 10:44:24;;;;;;;14.60;2.03;;;22.70;99.90;;;;;;5028267;28;20099;-63
2022/02/16 10:47:12;;;;;;;10.30;1.90;;;22.70;99.90;;;;;;5029035;28;20025;-63
2022/02/16 10:49:43;;;;;;;12.32;1.27;;;22.70;99.90;;;;;;5029711;28;20032;-64
2022/02/16 10:52:13;;;;;;;22.83;2.50;;;22.70;99.90;;;;;;5035434;28;20033;-64
2022/02/16 10:54:51;;;;;;;14.95;2.20;;;22.70;99.90;;;;;;5028417;28;20482;-63
2022/02/16 10:57:19;;;;;;;10.18;1.25;;;22.80;99.90;;;;;;5031623;28;20048;-63
2022/02/16 10:59:46;;;;;;;11.15;2.25;;;22.70;99.90;;;;;;5029169;28;20044;-63
2022/02/16 11:02:18;;;;;;;14.02;1.70;;;22.70;99.90;;;;;;5029244;28;20076;-64
2022/02/16 11:04:48;;;;;;;17.25;2.25;;;22.70;99.90;;;;;;5006062;28;20108;-64
2022/02/16 11:07:26;;;;;;;17.77;2.35;;;22.70;99.90;;;;;;5031347;28;20080;-64
2022/02/16 11:09:58;;;;;;;14.25;1.92;;;22.70;99.90;;;;;;5017865;28;20037;-64
2022/02/16 11:12:25;;;;;;;16.88;2.28;;;22.60;99.90;;;;;;5031400;28;20087;-64
2022/02/16 11:14:54;;;;;;;15.13;1.90;;;22.60;99.90;;;;;;5030767;28;20041;-64
2022/02/16 11:17:30;;;;;;;14.05;3.13;;;22.60;99.90;;;;;;5031771;28;20026;-64
2022/02/16 11:20:25;;;;;;;19.25;2.10;;;22.60;99.90;;;;;;5030465;28;20091;-64
2022/02/16 11:22:58;;;;;;;17.10;1.90;;;22.60;99.90;;;;;;5034623;28;20031;-63
2022/02/16 11:25:37;;;;;;;12.68;1.85;;;22.60;99.90;;;;;;5031693;28;20485;-63
2022/02/16 11:28:11;;;;;;;11.60;1.58;;;22.60;99.90;;;;;;5030892;28;20100;-65
2022/02/16 11:30:45;;;;;;;8.23;1.88;;;22.60;99.90;;;;;;5031677;28;20032;-64
2022/02/16 11:33:17;;;;;;;12.18;1.92;;;22.60;99.90;;;;;;5036894;28;20041;-63
2022/02/16 11:35:59;;;;;;;11.15;2.60;;;22.60;99.90;;;;;;5030201;28;20088;-63
2022/02/16 11:38:42;;;;;;;17.85;2.83;;;22.60;99.90;;;;;;5018331;28;20395;-63
2022/02/16 11:41:27;;;;;;;15.50;3.08;;;22.50;99.90;;;;;;5036610;28;20065;-63
2022/02/16 11:44:05;;;;;;;13.82;2.88;;;22.50;99.90;;;;;;5043746;28;20147;-64
2022/02/16 11:46:44;;;;;;;15.20;2.42;;;22.50;99.90;;;;;;5035954;28;20026;-63
2022/02/16 11:49:33;;;;;;;14.60;1.88;;;22.50;99.90;;;;;;5036465;28;20017;-64
2022/02/16 11:52:20;;;;;;;10.80;1.85;;;22.50;99.90;;;;;;5035379;28;20044;-64
2022/02/16 11:54:55;;;;;;;22.95;2.30;;;22.50;99.90;;;;;;5034844;28;20140;-64
2022/02/16 11:57:38;;;;;;;9.07;1.13;;;22.50;99.90;;;;;;5026836;28;20124;-64
2022/02/16 12:00:20;;;;;;;17.83;3.42;;;22.50;99.90;;;;;;5016848;28;20128;-64
2022/02/16 12:02:58;;;;;;;18.35;2.42;;;22.50;99.90;;;;;;5017022;28;20539;-64
2022/02/16 12:05:49;;;;;;;13.40;2.53;;;22.50;99.90;;;;;;5032833;28;20036;-64
2022/02/16 12:08:36;;;;;;;10.57;1.83;;;22.50;99.90;;;;;;5035040;28;20043;-64
2022/02/16 12:11:23;;;;;;;14.10;2.53;;;22.50;99.90;;;;;;5033260;28;20087;-64
2022/02/16 12:14:04;;;;;;;17.35;2.75;;;22.50;99.90;;;;;;5029849;28;20045;-64
2022/02/16 12:16:35;;;;;;;14.85;2.67;;;22.50;99.90;;;;;;5034220;28;20034;-64
2022/02/16 12:19:06;;;;;;;12.35;2.20;;;22.50;99.90;;;;;;5035122;28;20033;-64
2022/02/16 12:21:40;;;;;;;19.67;2.25;;;22.50;99.90;;;;;;5034106;28;20025;-64
2022/02/16 12:24:11;;;;;;;20.05;2.38;;;22.50;99.90;;;;;;5033957;28;20048;-64
2022/02/16 12:26:43;;;;;;;17.00;2.38;;;22.50;99.90;;;;;;5017270;28;20021;-64
2022/02/16 12:29:22;;;;;;;14.40;1.77;;;22.50;99.90;;;;;;5031637;28;20512;-64
2022/02/16 12:31:52;;;;;;;11.02;2.40;;;22.50;99.90;;;;;;5031540;28;20036;-64
2022/02/16 12:34:26;;;;;;;14.52;1.92;;;22.40;99.90;;;;;;5039717;28;20033;-63
2022/02/16 12:37:20;;;;;;;16.17;2.23;;;22.40;99.90;;;;;;5034813;28;20029;-64
2022/02/16 12:40:02;;;;;;;10.35;1.52;;;22.40;99.90;;;;;;5034234;28;20021;-64
2022/02/16 12:42:37;;;;;;;20.10;2.05;;;22.40;99.90;;;;;;5024859;28;20033;-64
2022/02/16 12:45:05;;;;;;;15.00;1.92;;;22.30;99.90;;;;;;5033245;28;20489;-64
2022/02/16 12:47:32;;;;;;;12.65;2.00;;;22.30;99.90;;;;;;5034227;28;20036;-64
2022/02/16 12:50:11;;;;;;;10.15;1.63;;;22.30;99.90;;;;;;5035256;28;20108;-64
2022/02/16 12:52:41;;;;;;;9.88;1.25;;;22.30;99.90;;;;;;5034631;28;20504;-64